createdAt,value
2018-09-02T00:00:50.157Z,15.52
2018-09-02T00:02:50.160Z,15.52
2018-09-02T00:04:50.529Z,15.52
2018-09-02T00:06:50.651Z,15.52
2018-09-02T00:08:49.687Z,15.53
2018-09-02T00:10:49.823Z,15.52
2018-09-02T00:12:49.826Z,15.52
2018-09-02T00:14:49.821Z,15.52
2018-09-02T00:16:50.157Z,15.52
2018-09-02T00:18:50.172Z,15.51
2018-09-02T00:20:50.145Z,15.50
2018-09-02T00:22:50.132Z,15.49
2018-09-02T00:24:50.151Z,15.49
2018-09-02T00:26:50.387Z,15.46
2018-09-02T00:28:50.488Z,15.44
2018-09-02T00:30:50.589Z,15.42
2018-09-02T00:32:50.843Z,15.40
2018-09-02T00:34:50.456Z,15.38
2018-09-02T00:36:50.619Z,15.36
2018-09-02T00:38:49.717Z,15.36
2018-09-02T00:40:50.675Z,15.34
2018-09-02T00:42:49.790Z,15.32
2018-09-02T00:44:49.873Z,15.33
2018-09-02T00:46:50.078Z,15.33
2018-09-02T00:48:50.159Z,15.33
2018-09-02T00:50:50.167Z,15.31
2018-09-02T00:52:50.205Z,15.30
2018-09-02T00:54:50.205Z,15.28
2018-09-02T00:56:50.557Z,15.27
2018-09-02T00:58:50.523Z,15.27
2018-09-02T01:00:50.567Z,15.24
2018-09-02T01:02:50.520Z,15.21
2018-09-02T01:04:49.875Z,15.20
2018-09-02T01:06:50.032Z,15.19
2018-09-02T01:08:49.999Z,15.16
2018-09-02T01:10:50.024Z,15.13
2018-09-02T01:12:50.026Z,15.12
2018-09-02T01:14:49.941Z,15.10
2018-09-02T01:16:50.142Z,15.07
2018-09-02T01:18:50.154Z,15.04
2018-09-02T01:20:50.239Z,15.02
2018-09-02T01:22:50.413Z,15.01
2018-09-02T01:24:50.522Z,15.03
2018-09-02T01:26:49.729Z,15.04
2018-09-02T01:28:49.750Z,15.02
2018-09-02T01:30:49.703Z,15.02
2018-09-02T01:32:49.840Z,14.99
2018-09-02T01:34:50.265Z,14.96
2018-09-02T01:36:50.462Z,14.96
2018-09-02T01:38:50.467Z,14.95
2018-09-02T01:40:50.483Z,14.96
2018-09-02T01:42:50.447Z,14.97
2018-09-02T01:44:50.521Z,14.97
2018-09-02T01:46:49.753Z,14.97
2018-09-02T01:48:49.733Z,14.96
2018-09-02T01:50:49.794Z,14.94
2018-09-02T01:52:49.844Z,14.93
2018-09-02T01:54:50.104Z,14.89
2018-09-02T01:56:50.289Z,14.88
2018-09-02T01:58:50.401Z,14.86
2018-09-02T02:00:50.376Z,14.84
2018-09-02T02:02:50.410Z,14.82
2018-09-02T02:04:49.869Z,14.81
2018-09-02T02:06:50.110Z,14.80
2018-09-02T02:08:50.348Z,14.80
2018-09-02T02:10:50.369Z,14.79
2018-09-02T02:12:50.440Z,14.76
2018-09-02T02:14:50.438Z,14.73
2018-09-02T02:16:50.676Z,14.71
2018-09-02T02:18:49.732Z,14.71
2018-09-02T02:20:49.806Z,14.69
2018-09-02T02:22:49.734Z,14.67
2018-09-02T02:24:49.790Z,14.65
2018-09-02T02:26:50.079Z,14.64
2018-09-02T02:28:50.056Z,14.64
2018-09-02T02:30:50.154Z,14.62
2018-09-02T02:32:50.239Z,14.61
2018-09-02T02:34:50.628Z,14.61
2018-09-02T02:36:49.999Z,14.60
2018-09-02T02:38:49.994Z,14.61
2018-09-02T02:40:50.049Z,14.62
2018-09-02T02:42:50.138Z,14.65
2018-09-02T02:44:50.180Z,14.68
2018-09-02T02:46:50.520Z,14.69
2018-09-02T02:48:50.504Z,14.71
2018-09-02T02:50:50.668Z,14.72
2018-09-02T02:52:49.827Z,14.73
2018-09-02T02:54:50.671Z,14.73
2018-09-02T02:56:49.820Z,14.73
2018-09-02T02:58:49.868Z,14.73
2018-09-02T03:00:50.037Z,14.73
2018-09-02T03:02:50.006Z,14.73
2018-09-02T03:04:50.231Z,14.74
2018-09-02T03:06:50.400Z,14.75
2018-09-02T03:08:50.464Z,14.75
2018-09-02T03:10:50.949Z,14.74
2018-09-02T03:12:50.112Z,14.74
2018-09-02T03:14:50.140Z,14.73
2018-09-02T03:16:50.355Z,14.73
2018-09-02T03:18:50.608Z,14.73
2018-09-02T03:20:50.566Z,14.73
2018-09-02T03:22:50.626Z,14.73
2018-09-02T03:24:49.735Z,14.73
2018-09-02T03:26:49.950Z,14.73
2018-09-02T03:28:49.946Z,14.74
2018-09-02T03:30:50.001Z,14.74
2018-09-02T03:32:50.056Z,14.72
2018-09-02T03:34:50.495Z,14.71
2018-09-02T03:36:49.908Z,14.71
2018-09-02T03:38:49.945Z,14.73
2018-09-02T03:40:50.006Z,14.73
2018-09-02T03:42:50.031Z,14.73
2018-09-02T03:44:50.240Z,14.73
2018-09-02T03:46:50.523Z,14.73
2018-09-02T03:48:50.584Z,14.73
2018-09-02T03:50:49.821Z,14.73
2018-09-02T03:52:50.007Z,14.72
2018-09-02T03:54:50.048Z,14.71
2018-09-02T03:56:50.281Z,14.69
2018-09-02T03:58:50.257Z,14.66
2018-09-02T04:00:50.285Z,14.63
2018-09-02T04:02:50.310Z,14.61
2018-09-02T04:04:49.746Z,14.58
2018-09-02T04:06:50.035Z,14.56
2018-09-02T04:08:50.127Z,14.53
2018-09-02T04:10:50.161Z,14.51
2018-09-02T04:12:50.149Z,14.50
2018-09-02T04:14:50.187Z,14.49
2018-09-02T04:16:50.433Z,14.47
2018-09-02T04:18:50.459Z,14.45
2018-09-02T04:20:50.540Z,14.42
2018-09-02T04:22:50.592Z,14.41
2018-09-02T04:24:50.673Z,14.38
2018-09-02T04:26:49.796Z,14.35
2018-09-02T04:28:49.983Z,14.34
2018-09-02T04:30:49.964Z,14.33
2018-09-02T04:32:49.999Z,14.34
2018-09-02T04:34:50.319Z,14.35
2018-09-02T04:36:50.453Z,14.34
2018-09-02T04:38:50.474Z,14.32
2018-09-02T04:40:50.532Z,14.30
2018-09-02T04:42:50.612Z,14.27
2018-09-02T04:44:49.838Z,14.25
2018-09-02T04:46:50.232Z,14.25
2018-09-02T04:48:50.348Z,14.19
2018-09-02T04:50:50.443Z,14.18
2018-09-02T04:52:50.471Z,14.14
2018-09-02T04:54:49.777Z,14.13
2018-09-02T04:56:49.943Z,14.10
2018-09-02T04:58:49.978Z,14.05
2018-09-02T05:00:49.941Z,14.03
2018-09-02T05:02:49.971Z,14.01
2018-09-02T05:04:50.352Z,13.97
2018-09-02T05:06:50.618Z,13.94
2018-09-02T05:08:49.717Z,13.90
2018-09-02T05:10:49.716Z,13.87
2018-09-02T05:12:49.869Z,13.82
2018-09-02T05:14:49.853Z,13.76
2018-09-02T05:16:50.085Z,13.71
2018-09-02T05:18:50.064Z,13.68
2018-09-02T05:20:50.211Z,13.66
2018-09-02T05:22:50.278Z,13.65
2018-09-02T05:24:50.344Z,13.61
2018-09-02T05:26:49.731Z,13.60
2018-09-02T05:28:49.851Z,13.59
2018-09-02T05:30:49.888Z,13.60
2018-09-02T05:32:50.014Z,13.61
2018-09-02T05:34:50.345Z,13.62
2018-09-02T05:36:50.433Z,13.64
2018-09-02T05:38:50.680Z,13.63
2018-09-02T05:40:49.801Z,13.61
2018-09-02T05:42:49.901Z,13.60
2018-09-02T05:44:49.986Z,13.59
2018-09-02T05:46:50.157Z,13.59
2018-09-02T05:48:50.310Z,13.58
2018-09-02T05:50:50.466Z,13.59
2018-09-02T05:52:50.485Z,13.60
2018-09-02T05:54:50.552Z,13.63
2018-09-02T05:56:49.821Z,13.63
2018-09-02T05:58:49.983Z,13.63
2018-09-02T06:00:50.063Z,13.66
2018-09-02T06:02:50.659Z,13.67
2018-09-02T06:04:50.430Z,13.67
2018-09-02T06:06:50.666Z,13.68
2018-09-02T06:08:49.797Z,13.69
2018-09-02T06:10:49.824Z,13.66
2018-09-02T06:12:49.995Z,13.65
2018-09-02T06:14:50.011Z,13.65
2018-09-02T06:16:50.270Z,13.65
2018-09-02T06:18:50.278Z,13.67
2018-09-02T06:20:50.492Z,13.69
2018-09-02T06:22:50.465Z,13.70
2018-09-02T06:24:50.557Z,13.70
2018-09-02T06:26:49.801Z,13.70
2018-09-02T06:28:49.889Z,13.70
2018-09-02T06:30:50.000Z,13.70
2018-09-02T06:32:50.594Z,13.71
2018-09-02T06:34:50.024Z,13.72
2018-09-02T06:36:50.151Z,13.75
2018-09-02T06:38:50.240Z,13.76
2018-09-02T06:40:50.283Z,13.80
2018-09-02T06:42:50.340Z,13.84
2018-09-02T06:44:50.311Z,13.85
2018-09-02T06:46:50.513Z,13.87
2018-09-02T06:48:50.511Z,13.88
2018-09-02T06:50:50.566Z,13.91
2018-09-02T06:52:50.490Z,13.92
2018-09-02T06:54:50.529Z,13.93
2018-09-02T06:56:49.763Z,13.92
2018-09-02T06:58:49.825Z,13.94
2018-09-02T07:00:49.901Z,13.95
2018-09-02T07:02:49.925Z,13.94
2018-09-02T07:04:50.242Z,13.94
2018-09-02T07:06:50.651Z,13.94
2018-09-02T07:08:49.814Z,13.95
2018-09-02T07:10:49.823Z,13.96
2018-09-02T07:12:49.969Z,13.99
2018-09-02T07:14:49.963Z,13.99
2018-09-02T07:16:50.127Z,14.00
2018-09-02T07:18:50.102Z,14.01
2018-09-02T07:20:50.152Z,14.03
2018-09-02T07:22:50.241Z,14.06
2018-09-02T07:24:50.241Z,14.07
2018-09-02T07:26:50.401Z,14.11
2018-09-02T07:28:50.428Z,14.14
2018-09-02T07:30:50.433Z,14.16
2018-09-02T07:32:50.432Z,14.18
2018-09-02T07:34:49.818Z,14.22
2018-09-02T07:36:50.183Z,14.26
2018-09-02T07:38:50.227Z,14.32
2018-09-02T07:40:50.349Z,14.34
2018-09-02T07:42:50.403Z,14.36
2018-09-02T07:44:50.396Z,14.37
2018-09-02T07:46:50.548Z,14.38
2018-09-02T07:48:50.485Z,14.42
2018-09-02T07:50:50.578Z,14.43
2018-09-02T07:52:50.572Z,14.45
2018-09-02T07:54:50.561Z,14.46
2018-09-02T07:56:49.778Z,14.49
2018-09-02T07:58:49.861Z,14.56
2018-09-02T08:00:49.982Z,14.59
2018-09-02T08:02:50.629Z,14.66
2018-09-02T08:04:50.142Z,14.77
2018-09-02T08:06:50.392Z,14.86
2018-09-02T08:08:50.403Z,14.95
2018-09-02T08:10:50.375Z,15.01
2018-09-02T08:12:51.844Z,15.08
2018-09-02T08:14:50.369Z,15.11
2018-09-02T08:16:50.539Z,15.11
2018-09-02T08:18:50.646Z,15.10
2018-09-02T08:20:50.661Z,15.05
2018-09-02T08:22:49.709Z,15.00
2018-09-02T08:24:49.806Z,14.93
2018-09-02T08:26:50.001Z,14.92
2018-09-02T08:28:50.018Z,14.86
2018-09-02T08:30:50.055Z,14.81
2018-09-02T08:32:50.273Z,14.76
2018-09-02T08:34:49.805Z,14.74
2018-09-02T08:36:49.991Z,14.73
2018-09-02T08:38:50.489Z,14.74
2018-09-02T08:40:49.790Z,14.75
2018-09-02T08:42:49.876Z,14.76
2018-09-02T08:44:49.883Z,14.85
2018-09-02T08:46:50.087Z,14.99
2018-09-02T08:48:50.128Z,15.06
2018-09-02T08:50:50.160Z,15.09
2018-09-02T08:52:50.184Z,15.21
2018-09-02T08:54:50.201Z,15.33
2018-09-02T08:56:50.253Z,15.36
2018-09-02T08:58:50.287Z,15.39
2018-09-02T09:00:50.315Z,15.38
2018-09-02T09:02:50.372Z,15.33
2018-09-02T09:04:50.013Z,15.27
2018-09-02T09:06:50.462Z,15.31
2018-09-02T09:08:51.166Z,15.36
2018-09-02T09:10:49.989Z,15.49
2018-09-02T09:12:50.215Z,15.68
2018-09-02T09:14:50.305Z,15.84
2018-09-02T09:16:51.028Z,15.84
2018-09-02T09:18:50.334Z,15.89
2018-09-02T09:20:50.316Z,15.93
2018-09-02T09:22:50.401Z,15.94
2018-09-02T09:24:50.466Z,16.01
2018-09-02T09:26:50.717Z,16.09
2018-09-02T09:28:49.872Z,16.05
2018-09-02T09:30:49.943Z,16.22
2018-09-02T09:32:50.004Z,16.27
2018-09-02T09:34:50.329Z,16.24
2018-09-02T09:36:50.610Z,16.29
2018-09-02T09:38:49.889Z,16.37
2018-09-02T09:40:49.898Z,16.57
2018-09-02T09:42:49.928Z,16.71
2018-09-02T09:44:49.972Z,16.81
2018-09-02T09:46:50.131Z,16.97
2018-09-02T09:48:50.144Z,16.89
2018-09-02T09:50:50.177Z,16.80
2018-09-02T09:52:50.231Z,17.02
2018-09-02T09:54:50.307Z,17.14
2018-09-02T09:56:50.488Z,17.14
2018-09-02T09:58:50.494Z,17.24
2018-09-02T10:00:50.522Z,17.25
2018-09-02T10:02:50.449Z,17.25
2018-09-02T10:04:49.941Z,17.19
2018-09-02T10:06:50.104Z,16.98
2018-09-02T10:08:50.101Z,16.86
2018-09-02T10:10:50.157Z,16.77
2018-09-02T10:12:50.176Z,16.73
2018-09-02T10:14:50.212Z,16.57
2018-09-02T10:16:50.422Z,16.59
2018-09-02T10:18:50.556Z,16.57
2018-09-02T10:20:50.504Z,16.66
2018-09-02T10:22:50.601Z,16.73
2018-09-02T10:24:50.394Z,16.84
2018-09-02T10:26:49.832Z,16.86
2018-09-02T10:28:49.999Z,16.89
2018-09-02T10:30:49.984Z,16.94
2018-09-02T10:32:49.939Z,16.89
2018-09-02T10:34:50.208Z,16.89
2018-09-02T10:36:50.365Z,16.91
2018-09-02T10:38:50.311Z,16.91
2018-09-02T10:40:50.305Z,16.82
2018-09-02T10:42:50.309Z,16.76
2018-09-02T10:44:50.318Z,16.66
2018-09-02T10:46:50.475Z,16.63
2018-09-02T10:48:50.459Z,16.60
2018-09-02T10:50:50.441Z,16.60
2018-09-02T10:52:50.399Z,16.60
2018-09-02T10:54:50.469Z,16.67
2018-09-02T10:56:50.649Z,16.72
2018-09-02T10:58:49.710Z,16.73
2018-09-02T11:00:49.720Z,16.78
2018-09-02T11:02:49.791Z,16.79
2018-09-02T11:04:50.295Z,16.79
2018-09-02T11:06:50.555Z,16.81
2018-09-02T11:08:51.170Z,16.81
2018-09-02T11:10:50.147Z,16.90
2018-09-02T11:12:50.094Z,16.82
2018-09-02T11:14:50.125Z,16.77
2018-09-02T11:16:50.263Z,16.84
2018-09-02T11:18:50.386Z,16.86
2018-09-02T11:20:50.399Z,16.91
2018-09-02T11:22:50.432Z,17.06
2018-09-02T11:24:50.504Z,17.15
2018-09-02T11:26:50.725Z,17.26
2018-09-02T11:28:49.920Z,17.24
2018-09-02T11:30:49.912Z,17.25
2018-09-02T11:32:50.001Z,17.15
2018-09-02T11:34:50.211Z,17.12
2018-09-02T11:36:50.351Z,17.11
2018-09-02T11:38:50.364Z,17.11
2018-09-02T11:40:50.429Z,17.02
2018-09-02T11:42:50.469Z,17.00
2018-09-02T11:44:50.476Z,16.98
2018-09-02T11:46:51.029Z,16.92
2018-09-02T11:48:50.264Z,16.92
2018-09-02T11:50:50.277Z,16.94
2018-09-02T11:52:50.276Z,16.98
2018-09-02T11:54:50.289Z,16.96
2018-09-02T11:56:50.469Z,16.98
2018-09-02T11:58:50.503Z,17.01
2018-09-02T12:00:50.606Z,17.01
2018-09-02T12:02:50.561Z,17.06
2018-09-02T12:04:50.253Z,17.03
2018-09-02T12:06:50.630Z,17.05
2018-09-02T12:08:50.664Z,17.09
2018-09-02T12:10:50.671Z,17.16
2018-09-02T12:12:50.737Z,17.17
2018-09-02T12:14:49.807Z,17.20
2018-09-02T12:16:50.055Z,17.28
2018-09-02T12:18:49.986Z,17.25
2018-09-02T12:20:49.945Z,17.27
2018-09-02T12:22:49.956Z,17.27
2018-09-02T12:24:49.942Z,17.27
2018-09-02T12:26:50.038Z,17.21
2018-09-02T12:28:50.290Z,17.21
2018-09-02T12:30:50.323Z,17.23
2018-09-02T12:32:50.511Z,17.18
2018-09-02T12:34:49.830Z,17.11
2018-09-02T12:36:50.204Z,17.06
2018-09-02T12:38:50.193Z,17.05
2018-09-02T12:40:50.274Z,17.08
2018-09-02T12:42:50.351Z,17.12
2018-09-02T12:44:50.354Z,17.12
2018-09-02T12:46:50.472Z,17.13
2018-09-02T12:48:50.832Z,17.13
2018-09-02T12:50:49.864Z,17.14
2018-09-02T12:52:49.894Z,17.11
2018-09-02T12:54:50.348Z,17.06
2018-09-02T12:56:50.534Z,17.02
2018-09-02T12:58:50.508Z,17.02
2018-09-02T13:00:50.460Z,17.03
2018-09-02T13:02:50.525Z,17.03
2018-09-02T13:04:49.981Z,17.02
2018-09-02T13:06:50.168Z,17.02
2018-09-02T13:08:50.190Z,16.99
2018-09-02T13:10:50.173Z,16.99
2018-09-02T13:12:50.649Z,16.99
2018-09-02T13:14:49.949Z,17.02
2018-09-02T13:16:50.156Z,17.03
2018-09-02T13:18:50.350Z,17.09
2018-09-02T13:20:50.531Z,17.08
2018-09-02T13:22:50.685Z,17.07
2018-09-02T13:24:50.664Z,17.04
2018-09-02T13:26:49.887Z,17.07
2018-09-02T13:28:50.024Z,17.04
2018-09-02T13:30:50.022Z,17.03
2018-09-02T13:32:49.993Z,16.96
2018-09-02T13:34:50.287Z,16.96
2018-09-02T13:36:50.512Z,16.97
2018-09-02T13:38:50.490Z,17.01
2018-09-02T13:40:50.496Z,17.01
2018-09-02T13:42:50.597Z,17.05
2018-09-02T13:44:49.811Z,17.08
2018-09-02T13:46:49.967Z,17.11
2018-09-02T13:48:50.042Z,17.09
2018-09-02T13:50:50.091Z,17.08
2018-09-02T13:52:50.060Z,17.06
2018-09-02T13:54:50.621Z,17.10
2018-09-02T13:56:49.863Z,17.15
2018-09-02T13:58:49.985Z,17.19
2018-09-02T14:00:50.038Z,17.23
2018-09-02T14:02:50.075Z,17.28
2018-09-02T14:04:50.336Z,17.34
2018-09-02T14:06:49.759Z,17.35
2018-09-02T14:08:50.697Z,17.35
2018-09-02T14:10:49.745Z,17.31
2018-09-02T14:12:49.870Z,17.27
2018-09-02T14:14:49.875Z,17.23
2018-09-02T14:16:50.113Z,17.22
2018-09-02T14:18:50.098Z,17.22
2018-09-02T14:20:50.093Z,17.22
2018-09-02T14:22:50.047Z,17.20
2018-09-02T14:24:50.079Z,17.19
2018-09-02T14:26:50.248Z,17.20
2018-09-02T14:28:50.294Z,17.16
2018-09-02T14:30:50.280Z,17.18
2018-09-02T14:32:50.301Z,17.20
2018-09-02T14:34:50.694Z,17.24
2018-09-02T14:36:49.811Z,17.28
2018-09-02T14:38:49.824Z,17.30
2018-09-02T14:40:49.842Z,17.30
2018-09-02T14:42:49.928Z,17.38
2018-09-02T14:44:49.928Z,17.40
2018-09-02T14:46:50.155Z,17.40
2018-09-02T14:48:50.147Z,17.40
2018-09-02T14:50:50.703Z,17.40
2018-09-02T14:52:50.006Z,17.39
2018-09-02T14:54:50.113Z,17.37
2018-09-02T14:56:50.674Z,17.35
2018-09-02T14:58:49.903Z,17.33
2018-09-02T15:00:49.902Z,17.29
2018-09-02T15:02:49.838Z,17.26
2018-09-02T15:04:50.473Z,17.18
2018-09-02T15:06:50.673Z,17.15
2018-09-02T15:08:49.703Z,17.15
2018-09-02T15:10:49.869Z,17.14
2018-09-02T15:12:49.964Z,17.16
2018-09-02T15:14:49.980Z,17.17
2018-09-02T15:16:50.162Z,17.21
2018-09-02T15:18:50.267Z,17.21
2018-09-02T15:20:50.329Z,17.22
2018-09-02T15:22:50.409Z,17.22
2018-09-02T15:24:50.420Z,17.30
2018-09-02T15:26:50.676Z,17.31
2018-09-02T15:28:49.846Z,17.31
2018-09-02T15:30:49.851Z,17.30
2018-09-02T15:32:49.958Z,17.27
2018-09-02T15:34:50.331Z,17.24
2018-09-02T15:36:50.527Z,17.21
2018-09-02T15:38:50.533Z,17.22
2018-09-02T15:40:50.609Z,17.21
2018-09-02T15:42:50.644Z,17.19
2018-09-02T15:44:49.783Z,17.20
2018-09-02T15:46:49.992Z,17.18
2018-09-02T15:48:50.015Z,17.18
2018-09-02T15:50:50.028Z,17.16
2018-09-02T15:52:50.038Z,17.16
2018-09-02T15:54:50.066Z,17.21
2018-09-02T15:56:50.167Z,17.23
2018-09-02T15:58:50.186Z,17.23
2018-09-02T16:00:50.433Z,17.20
2018-09-02T16:02:50.678Z,17.18
2018-09-02T16:04:50.163Z,17.17
2018-09-02T16:06:50.262Z,17.18
2018-09-02T16:08:50.202Z,17.18
2018-09-02T16:10:50.173Z,17.20
2018-09-02T16:12:50.197Z,17.23
2018-09-02T16:14:50.164Z,17.25
2018-09-02T16:16:50.274Z,17.26
2018-09-02T16:18:50.272Z,17.26
2018-09-02T16:20:50.366Z,17.26
2018-09-02T16:22:50.459Z,17.26
2018-09-02T16:24:50.566Z,17.23
2018-09-02T16:26:49.780Z,17.23
2018-09-02T16:28:49.874Z,17.22
2018-09-02T16:30:49.986Z,17.18
2018-09-02T16:32:49.919Z,17.17
2018-09-02T16:34:50.145Z,17.18
2018-09-02T16:36:50.278Z,17.19
2018-09-02T16:38:50.262Z,17.18
2018-09-02T16:40:50.252Z,17.18
2018-09-02T16:42:50.241Z,17.13
2018-09-02T16:44:50.201Z,17.08
2018-09-02T16:46:50.366Z,17.07
2018-09-02T16:48:50.486Z,17.05
2018-09-02T16:50:50.562Z,17.03
2018-09-02T16:52:50.817Z,17.00
2018-09-02T16:54:50.005Z,16.98
2018-09-02T16:56:50.177Z,16.95
2018-09-02T16:58:50.298Z,16.94
2018-09-02T17:00:50.278Z,16.92
2018-09-02T17:02:50.232Z,16.89
2018-09-02T17:04:50.489Z,16.86
2018-09-02T17:06:49.773Z,16.85
2018-09-02T17:08:49.899Z,16.80
2018-09-02T17:10:49.886Z,16.80
2018-09-02T17:12:50.384Z,16.76
2018-09-02T17:14:50.576Z,16.75
2018-09-02T17:16:49.801Z,16.71
2018-09-02T17:18:49.774Z,16.69
2018-09-02T17:20:49.833Z,16.65
2018-09-02T17:22:50.043Z,16.62
2018-09-02T17:24:49.991Z,16.58
2018-09-02T17:26:50.129Z,16.58
2018-09-02T17:28:50.092Z,16.57
2018-09-02T17:30:50.128Z,16.55
2018-09-02T17:32:50.140Z,16.53
2018-09-02T17:34:50.478Z,16.50
2018-09-02T17:36:49.771Z,16.50
2018-09-02T17:38:49.731Z,16.50
2018-09-02T17:40:49.822Z,16.47
2018-09-02T17:42:49.978Z,16.43
2018-09-02T17:44:50.002Z,16.40
2018-09-02T17:46:50.209Z,16.32
2018-09-02T17:48:50.195Z,16.17
2018-09-02T17:50:50.213Z,16.07
2018-09-02T17:52:50.203Z,15.94
2018-09-02T17:54:50.196Z,15.86
2018-09-02T17:56:50.368Z,15.78
2018-09-02T17:58:50.379Z,15.72
2018-09-02T18:00:50.535Z,15.71
2018-09-02T18:02:50.593Z,15.70
2018-09-02T18:04:50.169Z,15.68
2018-09-02T18:06:50.305Z,15.68
2018-09-02T18:08:50.360Z,15.61
2018-09-02T18:10:50.302Z,15.60
2018-09-02T18:12:50.385Z,15.57
2018-09-02T18:14:50.436Z,15.53
2018-09-02T18:16:50.594Z,15.51
2018-09-02T18:18:50.759Z,15.46
2018-09-02T18:20:49.792Z,15.44
2018-09-02T18:22:49.967Z,15.40
2018-09-02T18:24:49.935Z,15.40
2018-09-02T18:26:50.126Z,15.37
2018-09-02T18:28:50.328Z,15.32
2018-09-02T18:30:50.275Z,15.30
2018-09-02T18:32:50.320Z,15.28
2018-09-02T18:34:50.682Z,15.26
2018-09-02T18:36:49.945Z,15.21
2018-09-02T18:38:49.917Z,15.21
2018-09-02T18:40:49.876Z,15.21
2018-09-02T18:42:50.105Z,15.20
2018-09-02T18:44:50.150Z,15.18
2018-09-02T18:46:50.347Z,15.17
2018-09-02T18:48:50.347Z,15.17
2018-09-02T18:50:50.338Z,15.16
2018-09-02T18:52:50.388Z,15.16
2018-09-02T18:54:50.391Z,15.14
2018-09-02T18:56:50.540Z,15.13
2018-09-02T18:58:50.644Z,15.12
2018-09-02T19:00:50.561Z,15.11
2018-09-02T19:02:51.161Z,15.10
2018-09-02T19:04:49.724Z,15.10
2018-09-02T19:06:50.023Z,15.08
2018-09-02T19:08:49.981Z,15.07
2018-09-02T19:10:49.987Z,15.07
2018-09-02T19:12:49.971Z,15.08
2018-09-02T19:14:50.172Z,15.08
2018-09-02T19:16:50.343Z,15.09
2018-09-02T19:18:50.319Z,15.09
2018-09-02T19:20:50.333Z,15.08
2018-09-02T19:22:50.279Z,15.08
2018-09-02T19:24:50.305Z,15.08
2018-09-02T19:26:50.471Z,15.08
2018-09-02T19:28:50.451Z,15.08
2018-09-02T19:30:50.402Z,15.09
2018-09-02T19:32:50.365Z,15.09
2018-09-02T19:34:49.826Z,15.10
2018-09-02T19:36:50.048Z,15.10
2018-09-02T19:38:50.095Z,15.10
2018-09-02T19:40:50.129Z,15.08
2018-09-02T19:42:50.135Z,15.09
2018-09-02T19:44:50.149Z,15.10
2018-09-02T19:46:50.561Z,15.11
2018-09-02T19:48:49.738Z,15.13
2018-09-02T19:50:50.687Z,15.15
2018-09-02T19:52:49.717Z,15.14
2018-09-02T19:54:49.891Z,15.12
2018-09-02T19:56:50.145Z,15.11
2018-09-02T19:58:50.238Z,15.12
2018-09-02T20:00:50.245Z,15.11
2018-09-02T20:02:50.280Z,15.11
2018-09-02T20:04:50.521Z,15.11
2018-09-02T20:06:49.742Z,15.10
2018-09-02T20:08:49.770Z,15.09
2018-09-02T20:10:49.890Z,15.08
2018-09-02T20:12:49.884Z,15.09
2018-09-02T20:14:49.967Z,15.11
2018-09-02T20:16:50.147Z,15.10
2018-09-02T20:18:50.178Z,15.08
2018-09-02T20:20:50.144Z,15.06
2018-09-02T20:22:50.124Z,15.02
2018-09-02T20:24:50.177Z,15.01
2018-09-02T20:26:50.290Z,15.02
2018-09-02T20:28:50.208Z,15.01
2018-09-02T20:30:50.139Z,15.00
2018-09-02T20:32:50.139Z,14.98
2018-09-02T20:34:50.470Z,14.98
2018-09-02T20:36:49.736Z,14.97
2018-09-02T20:38:49.743Z,14.99
2018-09-02T20:40:49.807Z,15.00
2018-09-02T20:42:49.822Z,15.00
2018-09-02T20:44:49.808Z,15.00
2018-09-02T20:46:50.038Z,15.00
2018-09-02T20:48:50.139Z,15.00
2018-09-02T20:50:50.215Z,15.00
2018-09-02T20:52:50.239Z,14.99
2018-09-02T20:54:50.267Z,15.00
2018-09-02T20:56:50.458Z,15.00
2018-09-02T20:58:50.438Z,15.00
2018-09-02T21:00:50.596Z,15.02
2018-09-02T21:02:51.298Z,15.02
2018-09-02T21:04:49.892Z,15.02
2018-09-02T21:06:50.055Z,15.04
2018-09-02T21:08:50.060Z,15.05
2018-09-02T21:10:50.007Z,15.06
2018-09-02T21:12:49.950Z,15.06
2018-09-02T21:14:49.886Z,15.05
2018-09-02T21:16:50.394Z,15.05
2018-09-02T21:18:50.473Z,15.05
2018-09-02T21:20:50.430Z,15.05
2018-09-02T21:22:50.526Z,15.05
2018-09-02T21:24:50.486Z,15.05
2018-09-02T21:26:49.863Z,15.05
2018-09-02T21:28:50.473Z,15.04
2018-09-02T21:30:49.721Z,15.02
2018-09-02T21:32:49.721Z,15.01
2018-09-02T21:34:50.235Z,14.99
2018-09-02T21:36:50.341Z,14.99
2018-09-02T21:38:50.390Z,14.97
2018-09-02T21:40:50.412Z,14.97
2018-09-02T21:42:50.405Z,14.96
2018-09-02T21:44:50.432Z,14.95
2018-09-02T21:46:50.671Z,14.92
2018-09-02T21:48:49.756Z,14.90
2018-09-02T21:50:49.939Z,14.87
2018-09-02T21:52:49.906Z,14.86
2018-09-02T21:54:49.977Z,14.83
2018-09-02T21:56:50.079Z,14.82
2018-09-02T21:58:50.091Z,14.81
2018-09-02T22:00:50.008Z,14.76
2018-09-02T22:02:50.004Z,14.74
2018-09-02T22:04:50.287Z,14.70
2018-09-02T22:06:50.599Z,14.63
2018-09-02T22:08:50.583Z,14.57
2018-09-02T22:10:50.629Z,14.51
2018-09-02T22:12:49.716Z,14.42
2018-09-02T22:14:49.694Z,14.40
2018-09-02T22:16:50.037Z,14.34
2018-09-02T22:18:49.972Z,14.31
2018-09-02T22:20:49.997Z,14.31
2018-09-02T22:22:50.120Z,14.28
2018-09-02T22:24:50.160Z,14.28
2018-09-02T22:26:50.414Z,14.29
2018-09-02T22:28:50.498Z,14.30
2018-09-02T22:30:50.449Z,14.31
2018-09-02T22:32:50.483Z,14.34
2018-09-02T22:34:49.897Z,14.35
2018-09-02T22:36:50.109Z,14.39
2018-09-02T22:38:50.077Z,14.40
2018-09-02T22:40:50.087Z,14.41
2018-09-02T22:42:50.064Z,14.41
2018-09-02T22:44:50.058Z,14.41
2018-09-02T22:46:50.243Z,14.41
2018-09-02T22:48:50.177Z,14.42
2018-09-02T22:50:50.198Z,14.43
2018-09-02T22:52:50.198Z,14.44
2018-09-02T22:54:50.162Z,14.45
2018-09-02T22:56:50.327Z,14.46
2018-09-02T22:58:50.322Z,14.46
2018-09-02T23:00:50.329Z,14.47
2018-09-02T23:02:50.234Z,14.48
2018-09-02T23:04:50.662Z,14.48
2018-09-02T23:06:49.889Z,14.50
2018-09-02T23:08:49.865Z,14.50
2018-09-02T23:10:49.885Z,14.50
2018-09-02T23:12:49.892Z,14.50
2018-09-02T23:14:49.869Z,14.49
2018-09-02T23:16:50.281Z,14.51
2018-09-02T23:18:50.296Z,14.52
2018-09-02T23:20:50.282Z,14.52
2018-09-02T23:22:50.345Z,14.51
2018-09-02T23:24:50.291Z,14.49
2018-09-02T23:26:50.465Z,14.49
2018-09-02T23:28:50.486Z,14.50
2018-09-02T23:30:50.477Z,14.51
2018-09-02T23:32:50.523Z,14.52
2018-09-02T23:34:49.815Z,14.51
2018-09-02T23:36:49.932Z,14.52
2018-09-02T23:38:49.954Z,14.54
2018-09-02T23:40:49.928Z,14.54
2018-09-02T23:42:50.027Z,14.56
2018-09-02T23:44:49.995Z,14.56
2018-09-02T23:46:50.072Z,14.58
2018-09-02T23:48:50.093Z,14.59
2018-09-02T23:50:50.121Z,14.60
2018-09-02T23:52:50.076Z,14.63
2018-09-02T23:54:50.057Z,14.62
2018-09-02T23:56:50.181Z,14.64
2018-09-02T23:58:50.225Z,14.64
